Sparta, North Carolina
Current Conditions -  °F | °C
As of 7:15 AM on Tuesday 27 Jan 2015 (Local Time) from KGEV Reporting Station
Overcast Overcast  
Wind Chill: 11°   Ceiling: 12000
Heat Index: 22°   Visibility: 10mi
Dew Point:   Wind: 9mph
Humidity: 59%   Direction: 310°NW
Pressure: 29.69"   Gusts: 16mph
Location:  36.51°N, 81.12°W
Report Text: KGEV 271215Z AUTO 31008G14KT 270V330 10SM SCT100 OVC120 M06/M13 A2969 RMK AO2 T10581127
Loading
Personal Weather Stations






























Interactive Weather Map New forecast layout! Learn more

10-Day Weather Forecast

Advertisements
Track Severe Weather on mobile